createdAt,value
2023-01-29T00:00:00.791Z,98978.50
2023-01-29T00:02:27.327Z,98978.48
2023-01-29T00:04:58.735Z,98974.91
2023-01-29T00:07:25.526Z,98978.14
2023-01-29T00:09:52.192Z,98977.46
2023-01-29T00:12:18.611Z,98979.19
2023-01-29T00:14:45.144Z,98975.10
2023-01-29T00:17:11.898Z,98975.44
2023-01-29T00:19:38.689Z,98976.96
2023-01-29T00:22:05.286Z,98974.75
2023-01-29T00:24:31.831Z,98976.12
2023-01-29T00:26:58.291Z,98976.61
2023-01-29T00:29:24.780Z,98976.11
2023-01-29T00:31:51.518Z,98973.73
2023-01-29T00:34:18.287Z,98972.71
2023-01-29T00:36:44.829Z,98983.61
2023-01-29T00:39:11.371Z,98985.82
2023-01-29T00:41:38.624Z,98982.77
2023-01-29T00:44:06.656Z,98983.27
2023-01-29T00:46:33.250Z,98988.55
2023-01-29T00:49:00.932Z,98986.16
2023-01-29T00:51:27.661Z,98990.24
2023-01-29T00:53:54.134Z,98988.86
2023-01-29T00:56:20.754Z,98993.28
2023-01-29T00:58:47.187Z,98993.44
2023-01-29T01:01:13.931Z,98993.27
2023-01-29T01:03:40.465Z,98990.38
2023-01-29T01:06:10.369Z,98992.42
2023-01-29T01:08:37.228Z,98992.42
2023-01-29T01:11:07.463Z,98997.20
2023-01-29T01:13:35.535Z,98996.48
2023-01-29T01:16:02.037Z,98995.48
2023-01-29T01:18:31.592Z,98991.05
2023-01-29T01:20:58.636Z,98991.39
2023-01-29T01:23:25.805Z,98986.45
2023-01-29T01:25:52.338Z,98989.68
2023-01-29T01:28:18.876Z,98987.80
2023-01-29T01:30:45.449Z,98989.15
2023-01-29T01:33:12.060Z,98990.85
2023-01-29T01:35:39.647Z,98989.66
2023-01-29T01:38:06.264Z,98988.48
2023-01-29T01:40:33.128Z,98985.59
2023-01-29T01:43:00.844Z,98993.92
2023-01-29T01:45:37.512Z,98996.98
2023-01-29T01:48:12.827Z,99000.55
2023-01-29T01:50:46.756Z,98998.00
2023-01-29T01:53:20.725Z,98992.73
2023-01-29T01:55:54.529Z,98988.84
2023-01-29T01:58:33.627Z,98986.11
2023-01-29T02:01:01.399Z,98986.64
2023-01-29T02:03:31.380Z,98992.42
2023-01-29T02:05:59.977Z,98991.57
2023-01-29T02:08:37.920Z,98992.74
2023-01-29T02:11:06.076Z,98994.28
2023-01-29T02:13:32.587Z,98990.02
2023-01-29T02:15:59.119Z,98995.64
2023-01-29T02:18:25.907Z,98991.57
2023-01-29T02:21:08.231Z,98989.18
2023-01-29T02:23:56.625Z,98988.18
2023-01-29T02:26:42.233Z,98988.35
2023-01-29T02:29:23.211Z,98988.69
2023-01-29T02:32:08.852Z,98985.80
2023-01-29T02:34:53.367Z,98983.59
2023-01-29T02:37:25.971Z,98981.70
2023-01-29T02:40:05.126Z,98980.17
2023-01-29T02:42:38.875Z,98980.02
2023-01-29T02:45:22.636Z,98974.39
2023-01-29T02:47:58.258Z,98965.88
2023-01-29T02:50:36.742Z,98962.80
2023-01-29T02:53:14.272Z,98959.23
2023-01-29T02:56:13.474Z,98960.42
2023-01-29T02:58:43.631Z,98950.20
2023-01-29T03:01:17.195Z,98944.77
2023-01-29T03:03:49.479Z,98947.48
2023-01-29T03:06:42.073Z,98947.31
2023-01-29T03:09:24.355Z,98943.06
2023-01-29T03:11:54.605Z,98938.31
2023-01-29T03:14:36.756Z,98937.44
2023-01-29T03:17:09.432Z,98943.39
2023-01-29T03:19:41.861Z,98945.59
2023-01-29T03:22:11.722Z,98939.11
2023-01-29T03:24:46.701Z,98939.61
2023-01-29T03:27:16.820Z,98944.36
2023-01-29T03:29:49.270Z,98946.92
2023-01-29T03:32:18.826Z,98957.46
2023-01-29T03:34:50.309Z,98954.73
2023-01-29T03:37:23.713Z,98957.29
2023-01-29T03:39:50.895Z,98959.66
2023-01-29T03:42:54.081Z,98960.34
2023-01-29T03:45:31.371Z,98956.42
2023-01-29T03:48:28.552Z,98947.39
2023-01-29T03:51:19.829Z,98941.09
2023-01-29T03:53:55.172Z,98945.86
2023-01-29T03:56:30.801Z,98944.49
2023-01-29T03:59:16.137Z,98943.48
2023-01-29T04:01:51.245Z,98942.28
2023-01-29T04:04:26.683Z,98950.44
2023-01-29T04:06:57.513Z,98953.15
2023-01-29T04:09:34.347Z,98951.80
2023-01-29T04:12:14.371Z,98960.30
2023-01-29T04:14:40.951Z,98951.97
2023-01-29T04:17:16.546Z,98954.17
2023-01-29T04:19:43.859Z,98956.38
2023-01-29T04:22:34.215Z,98953.65
2023-01-29T04:25:05.816Z,98955.69
2023-01-29T04:27:38.499Z,98955.86
2023-01-29T04:30:35.764Z,98957.73
2023-01-29T04:33:44.160Z,98954.16
2023-01-29T04:36:21.451Z,98953.31
2023-01-29T04:38:57.937Z,98949.58
2023-01-29T04:41:36.063Z,98949.73
2023-01-29T04:44:20.948Z,98936.63
2023-01-29T04:46:47.353Z,98935.77
2023-01-29T04:49:32.663Z,98934.41
2023-01-29T04:52:17.523Z,98932.22
2023-01-29T04:55:08.747Z,98929.49
2023-01-29T04:57:52.678Z,98929.16
2023-01-29T05:00:30.298Z,98937.16
2023-01-29T05:02:57.286Z,98941.05
2023-01-29T05:05:24.160Z,98946.48
2023-01-29T05:07:51.115Z,98943.26
2023-01-29T05:10:20.462Z,98938.49
2023-01-29T05:12:52.860Z,98935.42
2023-01-29T05:15:25.330Z,98942.89
2023-01-29T05:17:52.565Z,98941.88
2023-01-29T05:20:20.276Z,98942.55
2023-01-29T05:22:47.898Z,98942.71
2023-01-29T05:25:26.930Z,98935.39
2023-01-29T05:27:54.519Z,98930.95
2023-01-29T05:30:21.010Z,98931.47
2023-01-29T05:32:47.474Z,98922.45
2023-01-29T05:35:14.144Z,98917.02
2023-01-29T05:37:40.659Z,98905.77
2023-01-29T05:40:08.142Z,98905.76
2023-01-29T05:42:34.597Z,98903.22
2023-01-29T05:45:01.063Z,98901.69
2023-01-29T05:47:27.581Z,98905.27
2023-01-29T05:49:54.076Z,98899.98
2023-01-29T05:52:20.571Z,98900.33
2023-01-29T05:54:47.823Z,98899.98
2023-01-29T05:57:15.012Z,98899.64
2023-01-29T05:59:41.780Z,98900.66
2023-01-29T06:02:08.865Z,98899.30
2023-01-29T06:04:35.474Z,98899.48
2023-01-29T06:07:02.016Z,98908.31
2023-01-29T06:09:28.507Z,98911.05
2023-01-29T06:11:55.162Z,98913.78
2023-01-29T06:14:22.181Z,98917.17
2023-01-29T06:16:48.791Z,98922.45
2023-01-29T06:19:15.371Z,98923.30
2023-01-29T06:21:41.883Z,98927.38
2023-01-29T06:24:09.235Z,98940.64
2023-01-29T06:26:35.792Z,98946.44
2023-01-29T06:29:02.253Z,98951.01
2023-01-29T06:31:38.554Z,98955.62
2023-01-29T06:34:09.457Z,98956.13
2023-01-29T06:36:36.408Z,98953.39
2023-01-29T06:39:03.843Z,98957.98
2023-01-29T06:41:30.700Z,98957.80
2023-01-29T06:43:57.332Z,98964.27
2023-01-29T06:46:24.054Z,98969.37
2023-01-29T06:48:50.727Z,98969.70
2023-01-29T06:51:17.621Z,98970.54
2023-01-29T06:53:46.202Z,98972.08
2023-01-29T06:56:13.292Z,98973.61
2023-01-29T06:58:39.955Z,98969.52
2023-01-29T07:01:09.705Z,98970.37
2023-01-29T07:03:36.636Z,98975.33
2023-01-29T07:06:03.575Z,98973.11
2023-01-29T07:08:30.253Z,98976.01
2023-01-29T07:11:00.870Z,98976.35
2023-01-29T07:13:27.578Z,98981.80
2023-01-29T07:15:54.134Z,98980.45
2023-01-29T07:18:20.626Z,98982.84
2023-01-29T07:20:47.431Z,98975.17
2023-01-29T07:23:14.993Z,98983.20
2023-01-29T07:25:41.819Z,98979.81
2023-01-29T07:28:08.305Z,98980.32
2023-01-29T07:30:36.118Z,98980.52
2023-01-29T07:33:07.604Z,98968.43
2023-01-29T07:35:38.519Z,98966.39
2023-01-29T07:38:05.012Z,98970.99
2023-01-29T07:40:31.510Z,98970.14
2023-01-29T07:43:02.616Z,98964.71
2023-01-29T07:45:30.152Z,98959.43
2023-01-29T07:47:57.389Z,98961.81
2023-01-29T07:50:25.419Z,98953.47
2023-01-29T07:52:52.102Z,98952.27
2023-01-29T07:55:18.528Z,98958.40
2023-01-29T07:57:45.135Z,98962.48
2023-01-29T08:00:12.966Z,98969.27
2023-01-29T08:02:39.921Z,98978.45
2023-01-29T08:05:07.258Z,98980.82
2023-01-29T08:07:33.931Z,98982.32
2023-01-29T08:10:00.414Z,98989.98
2023-01-29T08:12:26.938Z,98996.59
2023-01-29T08:14:53.745Z,99000.12
2023-01-29T08:17:20.205Z,99007.22
2023-01-29T08:19:46.759Z,99020.11
2023-01-29T08:22:13.202Z,99029.63
2023-01-29T08:24:53.362Z,99032.85
2023-01-29T08:27:26.117Z,99038.26
2023-01-29T08:29:52.562Z,99047.60
2023-01-29T08:32:18.985Z,99053.70
2023-01-29T08:34:45.586Z,99060.84
2023-01-29T08:37:12.091Z,99060.14
2023-01-29T08:39:38.730Z,99065.89
2023-01-29T08:42:05.268Z,99059.73
2023-01-29T08:44:31.693Z,99062.79
2023-01-29T08:46:58.151Z,99068.73
2023-01-29T08:49:25.109Z,99071.61
2023-01-29T08:51:51.599Z,99074.67
2023-01-29T08:54:18.259Z,99077.90
2023-01-29T08:56:44.813Z,99078.08
2023-01-29T08:59:11.343Z,99080.14
2023-01-29T09:01:37.906Z,99084.91
2023-01-29T09:04:04.642Z,99077.80
2023-01-29T09:06:31.163Z,99088.20
2023-01-29T09:08:57.571Z,99086.55
2023-01-29T09:11:24.302Z,99089.30
2023-01-29T09:13:50.801Z,99085.96
2023-01-29T09:16:17.401Z,99081.40
2023-01-29T09:18:43.924Z,99084.12
2023-01-29T09:21:11.326Z,99082.41
2023-01-29T09:23:38.097Z,99081.41
2023-01-29T09:26:04.697Z,99086.70
2023-01-29T09:28:31.177Z,99085.00
2023-01-29T09:31:01.837Z,99088.04
2023-01-29T09:33:28.681Z,99089.59
2023-01-29T09:35:55.192Z,99085.52
2023-01-29T09:38:21.843Z,99077.04
2023-01-29T09:41:00.525Z,99075.35
2023-01-29T09:44:02.101Z,99067.17
2023-01-29T09:46:42.290Z,99061.45
2023-01-29T09:49:23.948Z,99048.72
2023-01-29T09:51:53.884Z,99049.73
2023-01-29T09:54:29.843Z,99050.61
2023-01-29T09:56:58.000Z,99049.30
2023-01-29T09:59:30.096Z,99050.86
2023-01-29T10:02:09.346Z,99047.31
2023-01-29T10:04:54.598Z,99041.73
2023-01-29T10:07:52.605Z,99036.83
2023-01-29T10:10:26.116Z,99037.80
2023-01-29T10:13:20.517Z,99036.33
2023-01-29T10:15:58.930Z,99034.15
2023-01-29T10:19:02.748Z,99030.29
2023-01-29T10:21:57.956Z,99022.50
2023-01-29T10:24:41.729Z,99019.61
2023-01-29T10:27:16.769Z,99014.87
2023-01-29T10:29:45.439Z,99004.29
2023-01-29T10:32:16.429Z,99001.55
2023-01-29T10:34:49.945Z,98999.17
2023-01-29T10:37:20.632Z,98998.64
2023-01-29T10:39:47.422Z,98990.61
2023-01-29T10:42:29.028Z,98984.00
2023-01-29T10:45:07.993Z,98980.97
2023-01-29T10:47:40.459Z,98976.70
2023-01-29T10:50:28.479Z,98978.39
2023-01-29T10:53:24.636Z,98966.13
2023-01-29T10:56:23.097Z,98966.42
2023-01-29T10:59:29.182Z,98963.50
2023-01-29T11:01:59.889Z,98960.07
2023-01-29T11:04:31.970Z,98949.81
2023-01-29T11:06:59.962Z,98949.30
2023-01-29T11:12:06.819Z,98933.46
2023-01-29T11:14:33.322Z,98927.65
2023-01-29T11:17:00.095Z,98926.95
2023-01-29T11:19:44.462Z,98914.65
2023-01-29T11:22:20.229Z,98909.19
2023-01-29T11:25:07.616Z,98909.39
2023-01-29T11:27:43.873Z,98902.25
2023-01-29T11:30:41.525Z,98895.93
2023-01-29T11:33:20.185Z,98885.16
2023-01-29T11:35:46.912Z,98870.17
2023-01-29T11:38:16.525Z,98858.29
2023-01-29T11:40:44.212Z,98846.70
2023-01-29T11:43:18.294Z,98831.64
2023-01-29T11:45:45.689Z,98822.72
2023-01-29T11:48:21.403Z,98821.80
2023-01-29T11:50:56.766Z,98820.27
2023-01-29T11:53:45.231Z,98818.80
2023-01-29T11:56:28.786Z,98814.20
2023-01-29T11:58:58.120Z,98802.05
2023-01-29T12:01:37.385Z,98796.77
2023-01-29T12:04:20.245Z,98800.98
2023-01-29T12:06:49.718Z,98795.41
2023-01-29T12:09:19.394Z,98786.04
2023-01-29T12:11:45.896Z,98786.11
2023-01-29T12:14:28.736Z,98788.55
2023-01-29T12:17:31.048Z,98790.30
2023-01-29T12:20:04.622Z,98779.74
2023-01-29T12:22:47.848Z,98785.94
2023-01-29T12:25:22.781Z,98785.27
2023-01-29T12:28:14.819Z,98784.01
2023-01-29T12:30:44.359Z,98784.27
2023-01-29T12:33:43.997Z,98779.08
2023-01-29T12:36:19.504Z,98770.00
2023-01-29T12:38:45.995Z,98767.73
2023-01-29T12:41:37.761Z,98766.28
2023-01-29T12:44:11.825Z,98766.86
2023-01-29T12:46:44.425Z,98767.73
2023-01-29T12:49:16.443Z,98761.86
2023-01-29T12:51:51.070Z,98760.76
2023-01-29T12:54:34.495Z,98761.79
2023-01-29T12:57:04.410Z,98756.23
2023-01-29T12:59:47.520Z,98760.83
2023-01-29T13:02:40.437Z,98757.68
2023-01-29T13:05:16.139Z,98757.30
2023-01-29T13:07:52.335Z,98760.95
2023-01-29T13:10:29.320Z,98764.77
2023-01-29T13:13:05.680Z,98767.02
2023-01-29T13:15:39.179Z,98763.94
2023-01-29T13:18:30.302Z,98763.47
2023-01-29T13:20:57.309Z,98760.92
2023-01-29T13:23:41.905Z,98760.40
2023-01-29T13:26:09.005Z,98762.09
2023-01-29T13:28:36.420Z,98771.63
2023-01-29T13:31:31.568Z,98770.53
2023-01-29T13:34:13.307Z,98765.95
2023-01-29T13:36:47.917Z,98772.73
2023-01-29T13:39:35.645Z,98774.79
2023-01-29T13:42:14.795Z,98775.14
2023-01-29T13:44:41.677Z,98773.98
2023-01-29T13:47:11.472Z,98774.75
2023-01-29T13:49:53.295Z,98778.88
2023-01-29T13:52:37.269Z,98775.68
2023-01-29T13:55:25.980Z,98782.58
2023-01-29T13:57:57.063Z,98778.39
2023-01-29T14:00:23.495Z,98783.70
2023-01-29T14:02:55.945Z,98782.38
2023-01-29T14:05:31.595Z,98786.27
2023-01-29T14:08:00.092Z,98782.16
2023-01-29T14:10:29.383Z,98784.23
2023-01-29T14:13:05.088Z,98779.80
2023-01-29T14:15:36.257Z,98779.64
2023-01-29T14:18:05.115Z,98772.95
2023-01-29T14:20:48.965Z,98770.35
2023-01-29T14:23:51.403Z,98769.83
2023-01-29T14:26:30.053Z,98765.96
2023-01-29T14:29:21.656Z,98760.84
2023-01-29T14:32:23.573Z,98760.04
2023-01-29T14:35:01.703Z,98758.38
2023-01-29T14:37:35.894Z,98756.86
2023-01-29T14:40:11.666Z,98757.58
2023-01-29T14:43:01.347Z,98755.90
2023-01-29T14:45:30.680Z,98763.08
2023-01-29T14:48:11.653Z,98763.09
2023-01-29T14:50:42.593Z,98767.02
2023-01-29T14:53:22.940Z,98763.96
2023-01-29T14:56:01.360Z,98767.89
2023-01-29T14:58:38.766Z,98773.67
2023-01-29T15:01:14.969Z,98772.98
2023-01-29T15:03:51.401Z,98776.23
2023-01-29T15:06:33.616Z,98766.68
2023-01-29T15:09:18.261Z,98763.96
2023-01-29T15:12:13.779Z,98756.14
2023-01-29T15:15:18.264Z,98753.91
2023-01-29T15:18:05.641Z,98751.02
2023-01-29T15:20:36.556Z,98744.71
2023-01-29T15:23:05.276Z,98740.78
2023-01-29T15:25:37.497Z,98733.79
2023-01-29T15:28:05.455Z,98733.79
2023-01-29T15:30:34.287Z,98734.29
2023-01-29T15:33:02.702Z,98725.77
2023-01-29T15:35:35.500Z,98726.95
2023-01-29T15:38:21.403Z,98725.23
2023-01-29T15:41:02.637Z,98725.74
2023-01-29T15:43:31.798Z,98729.30
2023-01-29T15:46:01.601Z,98731.50
2023-01-29T15:48:36.234Z,98739.63
2023-01-29T15:51:07.189Z,98738.45
2023-01-29T15:53:40.905Z,98731.66
2023-01-29T15:56:12.358Z,98726.72
2023-01-29T15:58:39.400Z,98715.67
2023-01-29T16:01:06.745Z,98714.14
2023-01-29T16:03:34.791Z,98719.08
2023-01-29T16:06:02.381Z,98715.01
2023-01-29T16:08:29.413Z,98715.02
2023-01-29T16:10:59.356Z,98719.42
2023-01-29T16:13:29.824Z,98724.20
2023-01-29T16:16:01.592Z,98718.27
2023-01-29T16:18:36.303Z,98716.92
2023-01-29T16:21:15.727Z,98712.34
2023-01-29T16:23:45.762Z,98716.08
2023-01-29T16:26:16.813Z,98711.16
2023-01-29T16:28:45.798Z,98705.20
2023-01-29T16:31:14.258Z,98705.02
2023-01-29T16:33:43.319Z,98704.88
2023-01-29T16:36:22.515Z,98697.55
2023-01-29T16:38:56.949Z,98688.70
2023-01-29T16:41:23.361Z,98690.73
2023-01-29T16:44:03.360Z,98696.99
2023-01-29T16:46:37.417Z,98695.63
2023-01-29T16:49:26.148Z,98699.35
2023-01-29T16:51:53.797Z,98706.47
2023-01-29T16:54:25.589Z,98707.99
2023-01-29T16:56:55.798Z,98714.27
2023-01-29T16:59:31.224Z,98714.61
2023-01-29T17:01:58.782Z,98712.23
2023-01-29T17:04:25.284Z,98718.36
2023-01-29T17:07:01.189Z,98717.50
2023-01-29T17:09:32.107Z,98718.89
2023-01-29T17:12:01.886Z,98718.21
2023-01-29T17:14:31.352Z,98714.65
2023-01-29T17:17:06.530Z,98711.27
2023-01-29T17:19:33.687Z,98711.44
2023-01-29T17:22:00.307Z,98719.42
2023-01-29T17:24:26.936Z,98722.98
2023-01-29T17:26:54.037Z,98720.27
2023-01-29T17:29:31.198Z,98713.65
2023-01-29T17:31:58.071Z,98715.52
2023-01-29T17:34:24.663Z,98713.48
2023-01-29T17:36:51.521Z,98712.29
2023-01-29T17:39:24.458Z,98714.66
2023-01-29T17:41:56.320Z,98711.95
2023-01-29T17:44:23.207Z,98717.39
2023-01-29T17:46:49.988Z,98716.19
2023-01-29T17:49:25.607Z,98716.72
2023-01-29T17:51:53.587Z,98714.17
2023-01-29T17:54:20.715Z,98707.20
2023-01-29T17:56:48.202Z,98704.15
2023-01-29T17:59:17.008Z,98701.94
2023-01-29T18:01:43.943Z,98694.45
2023-01-29T18:04:11.639Z,98689.35
2023-01-29T18:06:39.947Z,98687.82
2023-01-29T18:09:06.841Z,98680.16
2023-01-29T18:11:34.350Z,98675.90
2023-01-29T18:14:11.359Z,98669.10
2023-01-29T18:16:42.344Z,98662.96
2023-01-29T18:19:24.118Z,98657.34
2023-01-29T18:21:50.568Z,98657.34
2023-01-29T18:24:17.202Z,98656.13
2023-01-29T18:26:43.728Z,98658.33
2023-01-29T18:29:10.226Z,98658.33
2023-01-29T18:31:37.293Z,98652.89
2023-01-29T18:34:04.295Z,98648.98
2023-01-29T18:36:31.060Z,98646.43
2023-01-29T18:38:58.295Z,98644.40
2023-01-29T18:41:24.827Z,98642.34
2023-01-29T18:43:52.087Z,98645.23
2023-01-29T18:46:19.870Z,98647.95
2023-01-29T18:48:46.622Z,98638.44
2023-01-29T18:51:13.151Z,98635.73
2023-01-29T18:53:39.699Z,98634.70
2023-01-29T18:56:07.637Z,98639.80
2023-01-29T18:58:36.623Z,98648.46
2023-01-29T19:01:10.424Z,98649.83
2023-01-29T19:03:38.386Z,98659.69
2023-01-29T19:06:07.154Z,98664.27
2023-01-29T19:08:34.309Z,98664.46
2023-01-29T19:11:01.244Z,98663.95
2023-01-29T19:13:31.748Z,98663.64
2023-01-29T19:15:58.848Z,98664.83
2023-01-29T19:18:25.457Z,98668.40
2023-01-29T19:20:52.716Z,98669.26
2023-01-29T19:23:19.579Z,98666.73
2023-01-29T19:25:46.427Z,98667.40
2023-01-29T19:28:13.361Z,98670.14
2023-01-29T19:30:40.866Z,98666.06
2023-01-29T19:33:07.775Z,98668.63
2023-01-29T19:35:34.619Z,98665.75
2023-01-29T19:38:01.469Z,98665.41
2023-01-29T19:40:28.310Z,98671.88
2023-01-29T19:42:55.470Z,98669.67
2023-01-29T19:45:37.328Z,98663.90
2023-01-29T19:48:09.235Z,98656.58
2023-01-29T19:50:35.648Z,98648.94
2023-01-29T19:53:02.201Z,98649.10
2023-01-29T19:55:28.647Z,98646.55
2023-01-29T19:57:55.690Z,98638.20
2023-01-29T20:00:22.448Z,98635.14
2023-01-29T20:02:49.176Z,98629.89
2023-01-29T20:05:16.204Z,98621.89
2023-01-29T20:07:43.178Z,98617.48
2023-01-29T20:10:11.450Z,98616.80
2023-01-29T20:12:38.204Z,98617.98
2023-01-29T20:15:06.196Z,98619.50
2023-01-29T20:17:33.032Z,98622.05
2023-01-29T20:19:59.765Z,98621.87
2023-01-29T20:22:26.819Z,98623.40
2023-01-29T20:24:54.202Z,98621.89
2023-01-29T20:27:20.673Z,98624.42
2023-01-29T20:29:47.151Z,98623.41
2023-01-29T20:32:13.956Z,98615.77
2023-01-29T20:34:41.470Z,98606.43
2023-01-29T20:37:08.212Z,98609.14
2023-01-29T20:39:34.840Z,98606.10
2023-01-29T20:42:01.701Z,98605.42
2023-01-29T20:44:28.450Z,98600.32
2023-01-29T20:46:55.179Z,98599.65
2023-01-29T20:49:21.682Z,98598.29
2023-01-29T20:51:48.163Z,98590.29
2023-01-29T20:54:14.904Z,98579.94
2023-01-29T20:56:44.116Z,98574.15
2023-01-29T20:59:14.079Z,98576.52
2023-01-29T21:01:41.539Z,98576.17
2023-01-29T21:04:08.034Z,98571.44
2023-01-29T21:06:34.666Z,98568.69
2023-01-29T21:09:01.315Z,98565.45
2023-01-29T21:11:27.945Z,98566.83
2023-01-29T21:13:54.506Z,98564.96
2023-01-29T21:16:21.172Z,98562.08
2023-01-29T21:18:47.701Z,98561.40
2023-01-29T21:21:14.315Z,98559.19
2023-01-29T21:23:40.861Z,98563.60
2023-01-29T21:26:07.338Z,98562.39
2023-01-29T21:28:34.865Z,98565.45
2023-01-29T21:31:06.832Z,98561.55
2023-01-29T21:33:33.475Z,98557.80
2023-01-29T21:36:01.006Z,98558.31
2023-01-29T21:38:27.713Z,98556.46
2023-01-29T21:40:59.935Z,98556.80
2023-01-29T21:43:26.612Z,98555.95
2023-01-29T21:46:01.251Z,98555.44
2023-01-29T21:48:27.779Z,98555.46
2023-01-29T21:50:54.208Z,98551.03
2023-01-29T21:53:20.747Z,98547.13
2023-01-29T21:55:47.723Z,98547.80
2023-01-29T21:58:14.726Z,98545.27
2023-01-29T22:00:41.703Z,98541.70
2023-01-29T22:03:08.275Z,98536.58
2023-01-29T22:05:34.791Z,98536.42
2023-01-29T22:08:01.633Z,98532.85
2023-01-29T22:10:28.476Z,98525.55
2023-01-29T22:12:54.898Z,98519.94
2023-01-29T22:15:23.586Z,98513.14
2023-01-29T22:17:51.061Z,98508.04
2023-01-29T22:20:18.342Z,98503.98
2023-01-29T22:22:45.061Z,98503.64
2023-01-29T22:25:11.553Z,98501.94
2023-01-29T22:27:37.997Z,98494.97
2023-01-29T22:30:05.865Z,98491.05
2023-01-29T22:32:32.819Z,98481.87
2023-01-29T22:34:59.404Z,98477.30
2023-01-29T22:37:25.894Z,98471.34
2023-01-29T22:39:52.380Z,98468.48
2023-01-29T22:42:19.653Z,98464.22
2023-01-29T22:44:46.097Z,98455.38
2023-01-29T22:47:12.543Z,98457.25
2023-01-29T22:49:39.059Z,98457.08
2023-01-29T22:52:05.579Z,98453.85
2023-01-29T22:54:32.031Z,98450.98
2023-01-29T22:56:58.516Z,98448.59
2023-01-29T22:59:25.218Z,98442.31
2023-01-29T23:01:51.841Z,98437.05
2023-01-29T23:04:18.337Z,98437.56
2023-01-29T23:06:44.854Z,98430.77
2023-01-29T23:09:11.419Z,98425.50
2023-01-29T23:11:37.848Z,98421.26
2023-01-29T23:14:04.582Z,98419.55
2023-01-29T23:16:31.274Z,98417.35
2023-01-29T23:18:57.798Z,98413.10
2023-01-29T23:21:25.767Z,98413.79
2023-01-29T23:23:52.603Z,98411.91
2023-01-29T23:26:19.112Z,98411.05
2023-01-29T23:28:46.117Z,98413.10
2023-01-29T23:31:13.549Z,98406.31
2023-01-29T23:33:40.443Z,98405.13
2023-01-29T23:36:07.876Z,98404.61
2023-01-29T23:38:34.363Z,98398.16
2023-01-29T23:41:01.008Z,98396.48
2023-01-29T23:43:30.468Z,98395.77
2023-01-29T23:45:57.421Z,98389.51
2023-01-29T23:48:24.822Z,98385.43
2023-01-29T23:50:51.879Z,98384.57
2023-01-29T23:53:18.619Z,98382.02
2023-01-29T23:55:56.143Z,98371.66
2023-01-29T23:58:23.063Z,98365.38
